sensor_id;sensor_type;location;lat;lon;timestamp;P1;durP1;ratioP1;P2;durP2;ratioP2
75465;SDS011;64049;46.290;44.240;2022-11-03T00:01:41;11.75;;;3.97;;
75465;SDS011;64049;46.290;44.240;2022-11-03T00:04:09;13.32;;;5.18;;
75465;SDS011;64049;46.290;44.240;2022-11-03T00:09:04;12.95;;;5.53;;
75465;SDS011;64049;46.290;44.240;2022-11-03T00:11:32;11.07;;;3.90;;
75465;SDS011;64049;46.290;44.240;2022-11-03T00:13:59;12.32;;;4.45;;
75465;SDS011;64049;46.290;44.240;2022-11-03T00:16:25;11.27;;;5.22;;
75465;SDS011;64049;46.290;44.240;2022-11-03T00:18:51;15.23;;;5.35;;
75465;SDS011;64049;46.290;44.240;2022-11-03T00:21:18;17.88;;;6.18;;
75465;SDS011;64049;46.290;44.240;2022-11-03T00:23:44;8.50;;;4.07;;
75465;SDS011;64049;46.290;44.240;2022-11-03T00:28:38;12.23;;;5.03;;
75465;SDS011;64049;46.290;44.240;2022-11-03T00:31:07;24.08;;;7.78;;
75465;SDS011;64049;46.290;44.240;2022-11-03T00:33:34;18.85;;;6.78;;
75465;SDS011;64049;46.290;44.240;2022-11-03T00:36:03;19.90;;;7.25;;
75465;SDS011;64049;46.290;44.240;2022-11-03T00:38:29;14.60;;;7.07;;
75465;SDS011;64049;46.290;44.240;2022-11-03T00:40:57;17.08;;;7.75;;
75465;SDS011;64049;46.290;44.240;2022-11-03T00:43:25;7.65;;;3.13;;
75465;SDS011;64049;46.290;44.240;2022-11-03T00:45:52;21.98;;;9.10;;
75465;SDS011;64049;46.290;44.240;2022-11-03T00:48:18;10.50;;;4.72;;
75465;SDS011;64049;46.290;44.240;2022-11-03T00:50:54;10.32;;;4.10;;
75465;SDS011;64049;46.290;44.240;2022-11-03T00:53:44;12.70;;;4.88;;
75465;SDS011;64049;46.290;44.240;2022-11-03T00:56:12;12.80;;;5.72;;
75465;SDS011;64049;46.290;44.240;2022-11-03T01:01:08;8.05;;;4.20;;
75465;SDS011;64049;46.290;44.240;2022-11-03T01:03:37;9.85;;;3.75;;
75465;SDS011;64049;46.290;44.240;2022-11-03T01:06:05;15.20;;;6.63;;
75465;SDS011;64049;46.290;44.240;2022-11-03T01:08:51;17.88;;;7.63;;
75465;SDS011;64049;46.290;44.240;2022-11-03T01:11:18;15.07;;;6.75;;
75465;SDS011;64049;46.290;44.240;2022-11-03T01:14:05;17.60;;;8.45;;
75465;SDS011;64049;46.290;44.240;2022-11-03T01:16:31;7.90;;;3.83;;
75465;SDS011;64049;46.290;44.240;2022-11-03T01:18:57;16.90;;;7.00;;
75465;SDS011;64049;46.290;44.240;2022-11-03T01:21:23;15.45;;;6.60;;
75465;SDS011;64049;46.290;44.240;2022-11-03T01:23:49;20.02;;;8.80;;
75465;SDS011;64049;46.290;44.240;2022-11-03T01:26:15;13.90;;;6.82;;
75465;SDS011;64049;46.290;44.240;2022-11-03T01:28:42;11.73;;;5.70;;
75465;SDS011;64049;46.290;44.240;2022-11-03T01:31:12;12.48;;;5.20;;
75465;SDS011;64049;46.290;44.240;2022-11-03T01:33:39;18.15;;;6.88;;
75465;SDS011;64049;46.290;44.240;2022-11-03T01:36:05;12.57;;;7.28;;
75465;SDS011;64049;46.290;44.240;2022-11-03T01:38:33;20.48;;;8.90;;
75465;SDS011;64049;46.290;44.240;2022-11-03T01:41:00;21.02;;;8.88;;
75465;SDS011;64049;46.290;44.240;2022-11-03T01:43:29;16.08;;;7.10;;
75465;SDS011;64049;46.290;44.240;2022-11-03T01:46:07;21.75;;;9.25;;
75465;SDS011;64049;46.290;44.240;2022-11-03T01:48:37;28.88;;;12.18;;
75465;SDS011;64049;46.290;44.240;2022-11-03T01:51:07;19.98;;;10.27;;
75465;SDS011;64049;46.290;44.240;2022-11-03T01:53:36;24.00;;;11.15;;
75465;SDS011;64049;46.290;44.240;2022-11-03T01:56:06;12.68;;;5.20;;
75465;SDS011;64049;46.290;44.240;2022-11-03T01:58:35;20.40;;;9.10;;
75465;SDS011;64049;46.290;44.240;2022-11-03T02:01:05;16.20;;;7.07;;
75465;SDS011;64049;46.290;44.240;2022-11-03T02:03:33;19.35;;;9.15;;
75465;SDS011;64049;46.290;44.240;2022-11-03T02:06:03;21.23;;;9.20;;
75465;SDS011;64049;46.290;44.240;2022-11-03T02:11:05;8.52;;;3.40;;
75465;SDS011;64049;46.290;44.240;2022-11-03T02:13:50;12.02;;;5.18;;
75465;SDS011;64049;46.290;44.240;2022-11-03T02:16:17;20.25;;;8.55;;
75465;SDS011;64049;46.290;44.240;2022-11-03T02:18:45;15.77;;;6.18;;
75465;SDS011;64049;46.290;44.240;2022-11-03T02:21:21;15.95;;;6.30;;
75465;SDS011;64049;46.290;44.240;2022-11-03T02:24:17;18.30;;;7.40;;
75465;SDS011;64049;46.290;44.240;2022-11-03T02:26:54;15.82;;;7.15;;
75465;SDS011;64049;46.290;44.240;2022-11-03T02:29:21;13.23;;;6.30;;
75465;SDS011;64049;46.290;44.240;2022-11-03T02:31:48;21.50;;;9.07;;
75465;SDS011;64049;46.290;44.240;2022-11-03T02:34:23;18.30;;;7.93;;
75465;SDS011;64049;46.290;44.240;2022-11-03T02:36:57;21.80;;;8.85;;
75465;SDS011;64049;46.290;44.240;2022-11-03T02:39:33;28.48;;;10.77;;
75465;SDS011;64049;46.290;44.240;2022-11-03T02:42:02;7.03;;;3.38;;
75465;SDS011;64049;46.290;44.240;2022-11-03T02:44:30;23.00;;;8.85;;
75465;SDS011;64049;46.290;44.240;2022-11-03T02:46:58;11.55;;;4.18;;
75465;SDS011;64049;46.290;44.240;2022-11-03T02:49:27;17.55;;;8.02;;
75465;SDS011;64049;46.290;44.240;2022-11-03T02:52:00;22.08;;;8.35;;
75465;SDS011;64049;46.290;44.240;2022-11-03T02:54:45;22.73;;;8.63;;
75465;SDS011;64049;46.290;44.240;2022-11-03T02:57:15;15.70;;;6.25;;
75465;SDS011;64049;46.290;44.240;2022-11-03T02:59:51;12.38;;;4.78;;
75465;SDS011;64049;46.290;44.240;2022-11-03T03:02:23;12.73;;;6.55;;
75465;SDS011;64049;46.290;44.240;2022-11-03T03:04:59;21.65;;;10.15;;
75465;SDS011;64049;46.290;44.240;2022-11-03T03:07:31;21.25;;;7.70;;
75465;SDS011;64049;46.290;44.240;2022-11-03T03:10:04;13.68;;;5.95;;
75465;SDS011;64049;46.290;44.240;2022-11-03T03:12:31;13.57;;;7.03;;
75465;SDS011;64049;46.290;44.240;2022-11-03T03:14:59;18.98;;;7.07;;
75465;SDS011;64049;46.290;44.240;2022-11-03T03:22:57;14.75;;;7.78;;
75465;SDS011;64049;46.290;44.240;2022-11-03T03:25:38;33.55;;;10.82;;
75465;SDS011;64049;46.290;44.240;2022-11-03T03:28:12;17.25;;;8.18;;
75465;SDS011;64049;46.290;44.240;2022-11-03T03:30:42;15.93;;;6.60;;
75465;SDS011;64049;46.290;44.240;2022-11-03T03:33:11;18.10;;;7.70;;
75465;SDS011;64049;46.290;44.240;2022-11-03T03:35:40;23.73;;;10.85;;
75465;SDS011;64049;46.290;44.240;2022-11-03T03:38:19;27.60;;;13.32;;
75465;SDS011;64049;46.290;44.240;2022-11-03T03:40:49;31.33;;;12.95;;
75465;SDS011;64049;46.290;44.240;2022-11-03T03:43:17;21.80;;;7.57;;
75465;SDS011;64049;46.290;44.240;2022-11-03T03:45:46;30.15;;;12.80;;
75465;SDS011;64049;46.290;44.240;2022-11-03T03:48:16;17.60;;;8.48;;
75465;SDS011;64049;46.290;44.240;2022-11-03T03:50:42;43.53;;;16.73;;
75465;SDS011;64049;46.290;44.240;2022-11-03T03:55:38;26.52;;;10.68;;
75465;SDS011;64049;46.290;44.240;2022-11-03T03:58:06;31.33;;;10.95;;
75465;SDS011;64049;46.290;44.240;2022-11-03T04:00:34;44.42;;;14.90;;
75465;SDS011;64049;46.290;44.240;2022-11-03T04:02:59;49.35;;;17.38;;
75465;SDS011;64049;46.290;44.240;2022-11-03T04:05:25;23.10;;;10.00;;
75465;SDS011;64049;46.290;44.240;2022-11-03T04:07:52;48.88;;;18.80;;
75465;SDS011;64049;46.290;44.240;2022-11-03T04:10:19;32.42;;;12.48;;
75465;SDS011;64049;46.290;44.240;2022-11-03T04:12:46;49.78;;;17.00;;
75465;SDS011;64049;46.290;44.240;2022-11-03T04:15:31;41.00;;;13.77;;
75465;SDS011;64049;46.290;44.240;2022-11-03T04:18:16;48.95;;;16.73;;
75465;SDS011;64049;46.290;44.240;2022-11-03T04:21:02;36.85;;;14.13;;
75465;SDS011;64049;46.290;44.240;2022-11-03T04:23:47;12.98;;;5.63;;
75465;SDS011;64049;46.290;44.240;2022-11-03T04:26:13;19.63;;;8.38;;
75465;SDS011;64049;46.290;44.240;2022-11-03T04:28:41;39.40;;;12.98;;
75465;SDS011;64049;46.290;44.240;2022-11-03T04:31:14;33.60;;;12.80;;
75465;SDS011;64049;46.290;44.240;2022-11-03T04:33:42;21.98;;;8.27;;
75465;SDS011;64049;46.290;44.240;2022-11-03T04:36:18;28.38;;;10.93;;
75465;SDS011;64049;46.290;44.240;2022-11-03T04:38:46;20.42;;;10.07;;
75465;SDS011;64049;46.290;44.240;2022-11-03T04:41:20;30.80;;;9.70;;
75465;SDS011;64049;46.290;44.240;2022-11-03T04:43:48;28.52;;;13.15;;
75465;SDS011;64049;46.290;44.240;2022-11-03T04:46:16;37.70;;;13.93;;
75465;SDS011;64049;46.290;44.240;2022-11-03T04:48:49;30.75;;;12.65;;
75465;SDS011;64049;46.290;44.240;2022-11-03T04:51:17;29.75;;;10.82;;
75465;SDS011;64049;46.290;44.240;2022-11-03T04:53:47;21.75;;;9.48;;
75465;SDS011;64049;46.290;44.240;2022-11-03T04:56:19;18.00;;;9.43;;
75465;SDS011;64049;46.290;44.240;2022-11-03T04:58:47;15.15;;;8.50;;
75465;SDS011;64049;46.290;44.240;2022-11-03T05:01:14;22.67;;;8.60;;
75465;SDS011;64049;46.290;44.240;2022-11-03T05:03:43;30.67;;;14.88;;
75465;SDS011;64049;46.290;44.240;2022-11-03T05:08:46;39.95;;;14.27;;
75465;SDS011;64049;46.290;44.240;2022-11-03T05:11:24;50.60;;;17.95;;
75465;SDS011;64049;46.290;44.240;2022-11-03T05:13:59;39.30;;;13.20;;
75465;SDS011;64049;46.290;44.240;2022-11-03T05:16:27;42.30;;;16.65;;
75465;SDS011;64049;46.290;44.240;2022-11-03T05:18:55;21.02;;;8.95;;
75465;SDS011;64049;46.290;44.240;2022-11-03T05:21:21;26.30;;;10.88;;
75465;SDS011;64049;46.290;44.240;2022-11-03T05:23:52;43.13;;;16.40;;
75465;SDS011;64049;46.290;44.240;2022-11-03T05:26:25;21.20;;;10.55;;
75465;SDS011;64049;46.290;44.240;2022-11-03T05:31:45;20.73;;;8.90;;
75465;SDS011;64049;46.290;44.240;2022-11-03T05:36:47;20.77;;;9.95;;
75465;SDS011;64049;46.290;44.240;2022-11-03T05:39:28;30.88;;;11.82;;
75465;SDS011;64049;46.290;44.240;2022-11-03T05:41:59;21.55;;;10.27;;
75465;SDS011;64049;46.290;44.240;2022-11-03T05:44:31;24.48;;;8.23;;
75465;SDS011;64049;46.290;44.240;2022-11-03T05:47:01;16.17;;;7.10;;
75465;SDS011;64049;46.290;44.240;2022-11-03T05:49:38;20.92;;;9.07;;
75465;SDS011;64049;46.290;44.240;2022-11-03T05:52:04;28.63;;;10.50;;
75465;SDS011;64049;46.290;44.240;2022-11-03T05:54:37;23.10;;;9.45;;
75465;SDS011;64049;46.290;44.240;2022-11-03T05:57:07;24.40;;;10.63;;
75465;SDS011;64049;46.290;44.240;2022-11-03T05:59:41;24.23;;;10.63;;
75465;SDS011;64049;46.290;44.240;2022-11-03T06:04:58;26.08;;;12.48;;
75465;SDS011;64049;46.290;44.240;2022-11-03T06:07:25;19.17;;;8.88;;
75465;SDS011;64049;46.290;44.240;2022-11-03T06:09:54;28.02;;;15.20;;
75465;SDS011;64049;46.290;44.240;2022-11-03T06:12:21;22.20;;;12.30;;
75465;SDS011;64049;46.290;44.240;2022-11-03T06:14:49;22.73;;;11.05;;
75465;SDS011;64049;46.290;44.240;2022-11-03T06:17:34;20.42;;;9.27;;
75465;SDS011;64049;46.290;44.240;2022-11-03T06:20:02;27.13;;;12.70;;
75465;SDS011;64049;46.290;44.240;2022-11-03T06:22:40;20.58;;;9.15;;
75465;SDS011;64049;46.290;44.240;2022-11-03T06:28:03;16.48;;;9.20;;
75465;SDS011;64049;46.290;44.240;2022-11-03T06:30:35;16.35;;;6.82;;
75465;SDS011;64049;46.290;44.240;2022-11-03T06:33:18;18.55;;;8.65;;
75465;SDS011;64049;46.290;44.240;2022-11-03T06:35:48;19.40;;;7.68;;
75465;SDS011;64049;46.290;44.240;2022-11-03T06:38:18;15.55;;;8.82;;
75465;SDS011;64049;46.290;44.240;2022-11-03T06:40:49;15.65;;;7.72;;
75465;SDS011;64049;46.290;44.240;2022-11-03T06:43:19;17.38;;;7.80;;
75465;SDS011;64049;46.290;44.240;2022-11-03T06:45:51;21.48;;;9.70;;
75465;SDS011;64049;46.290;44.240;2022-11-03T06:48:20;15.75;;;7.18;;
75465;SDS011;64049;46.290;44.240;2022-11-03T06:50:48;15.40;;;8.27;;
75465;SDS011;64049;46.290;44.240;2022-11-03T06:53:18;16.52;;;8.65;;
75465;SDS011;64049;46.290;44.240;2022-11-03T06:55:47;14.20;;;7.15;;
75465;SDS011;64049;46.290;44.240;2022-11-03T07:01:23;12.68;;;7.45;;
75465;SDS011;64049;46.290;44.240;2022-11-03T07:03:48;15.68;;;7.05;;
75465;SDS011;64049;46.290;44.240;2022-11-03T07:06:18;12.55;;;5.68;;
75465;SDS011;64049;46.290;44.240;2022-11-03T07:08:49;15.90;;;6.10;;
75465;SDS011;64049;46.290;44.240;2022-11-03T07:11:21;12.25;;;5.00;;
75465;SDS011;64049;46.290;44.240;2022-11-03T07:14:11;9.93;;;5.75;;
75465;SDS011;64049;46.290;44.240;2022-11-03T07:16:41;12.10;;;6.22;;
75465;SDS011;64049;46.290;44.240;2022-11-03T07:19:16;8.82;;;4.68;;
75465;SDS011;64049;46.290;44.240;2022-11-03T07:21:49;14.10;;;6.50;;
75465;SDS011;64049;46.290;44.240;2022-11-03T07:24:26;9.27;;;5.40;;
75465;SDS011;64049;46.290;44.240;2022-11-03T07:30:18;7.97;;;4.40;;
75465;SDS011;64049;46.290;44.240;2022-11-03T07:32:56;13.63;;;7.20;;
75465;SDS011;64049;46.290;44.240;2022-11-03T07:35:30;9.73;;;4.78;;
75465;SDS011;64049;46.290;44.240;2022-11-03T07:38:02;11.73;;;4.47;;
75465;SDS011;64049;46.290;44.240;2022-11-03T07:40:35;11.95;;;4.63;;
75465;SDS011;64049;46.290;44.240;2022-11-03T07:43:10;11.57;;;5.30;;
75465;SDS011;64049;46.290;44.240;2022-11-03T07:45:41;7.82;;;3.78;;
75465;SDS011;64049;46.290;44.240;2022-11-03T07:53:52;6.95;;;3.40;;
75465;SDS011;64049;46.290;44.240;2022-11-03T07:56:22;9.30;;;4.05;;
75465;SDS011;64049;46.290;44.240;2022-11-03T07:59:33;7.32;;;4.10;;
75465;SDS011;64049;46.290;44.240;2022-11-03T08:01:54;5.72;;;2.50;;
75465;SDS011;64049;46.290;44.240;2022-11-03T08:04:22;8.32;;;3.92;;
75465;SDS011;64049;46.290;44.240;2022-11-03T08:06:50;7.43;;;3.22;;
75465;SDS011;64049;46.290;44.240;2022-11-03T08:09:17;6.85;;;2.17;;
75465;SDS011;64049;46.290;44.240;2022-11-03T08:11:44;4.90;;;1.90;;
75465;SDS011;64049;46.290;44.240;2022-11-03T08:14:10;7.28;;;2.22;;
75465;SDS011;64049;46.290;44.240;2022-11-03T08:16:36;4.72;;;2.30;;
75465;SDS011;64049;46.290;44.240;2022-11-03T08:19:03;6.50;;;2.42;;
75465;SDS011;64049;46.290;44.240;2022-11-03T08:21:29;8.15;;;2.50;;
75465;SDS011;64049;46.290;44.240;2022-11-03T08:23:55;8.60;;;2.05;;
75465;SDS011;64049;46.290;44.240;2022-11-03T08:26:21;5.10;;;2.28;;
75465;SDS011;64049;46.290;44.240;2022-11-03T08:28:47;5.95;;;1.83;;
75465;SDS011;64049;46.290;44.240;2022-11-03T08:31:13;6.90;;;2.20;;
75465;SDS011;64049;46.290;44.240;2022-11-03T08:33:39;6.00;;;2.80;;
75465;SDS011;64049;46.290;44.240;2022-11-03T08:36:05;6.15;;;2.28;;
75465;SDS011;64049;46.290;44.240;2022-11-03T08:38:32;4.43;;;1.92;;
75465;SDS011;64049;46.290;44.240;2022-11-03T08:40:58;6.78;;;2.90;;
75465;SDS011;64049;46.290;44.240;2022-11-03T08:43:25;5.85;;;2.70;;
75465;SDS011;64049;46.290;44.240;2022-11-03T08:45:51;5.32;;;2.67;;
75465;SDS011;64049;46.290;44.240;2022-11-03T08:48:24;7.47;;;2.63;;
75465;SDS011;64049;46.290;44.240;2022-11-03T08:50:51;5.63;;;3.22;;
75465;SDS011;64049;46.290;44.240;2022-11-03T08:53:23;6.05;;;2.17;;
75465;SDS011;64049;46.290;44.240;2022-11-03T08:55:50;9.40;;;3.03;;
75465;SDS011;64049;46.290;44.240;2022-11-03T08:58:19;6.47;;;2.58;;
75465;SDS011;64049;46.290;44.240;2022-11-03T09:00:46;8.95;;;2.70;;
75465;SDS011;64049;46.290;44.240;2022-11-03T09:03:13;4.75;;;2.10;;
75465;SDS011;64049;46.290;44.240;2022-11-03T09:05:39;9.98;;;3.92;;
75465;SDS011;64049;46.290;44.240;2022-11-03T09:08:06;7.18;;;3.40;;
75465;SDS011;64049;46.290;44.240;2022-11-03T09:10:32;5.22;;;2.47;;
75465;SDS011;64049;46.290;44.240;2022-11-03T09:12:58;6.68;;;2.45;;
75465;SDS011;64049;46.290;44.240;2022-11-03T09:15:24;5.72;;;2.13;;
75465;SDS011;64049;46.290;44.240;2022-11-03T09:17:50;7.93;;;3.15;;
75465;SDS011;64049;46.290;44.240;2022-11-03T09:20:16;7.88;;;2.72;;
75465;SDS011;64049;46.290;44.240;2022-11-03T09:22:42;6.93;;;2.30;;
75465;SDS011;64049;46.290;44.240;2022-11-03T09:25:08;8.85;;;3.85;;
75465;SDS011;64049;46.290;44.240;2022-11-03T09:27:35;5.45;;;2.20;;
75465;SDS011;64049;46.290;44.240;2022-11-03T09:30:01;9.02;;;2.75;;
75465;SDS011;64049;46.290;44.240;2022-11-03T09:32:27;5.93;;;2.88;;
75465;SDS011;64049;46.290;44.240;2022-11-03T09:34:53;9.70;;;3.45;;
75465;SDS011;64049;46.290;44.240;2022-11-03T09:37:19;5.65;;;3.10;;
75465;SDS011;64049;46.290;44.240;2022-11-03T09:39:47;13.13;;;2.85;;
75465;SDS011;64049;46.290;44.240;2022-11-03T09:42:13;5.32;;;2.45;;
75465;SDS011;64049;46.290;44.240;2022-11-03T09:44:40;5.63;;;2.67;;
75465;SDS011;64049;46.290;44.240;2022-11-03T09:47:08;6.25;;;3.33;;
75465;SDS011;64049;46.290;44.240;2022-11-03T09:49:44;6.57;;;3.08;;
75465;SDS011;64049;46.290;44.240;2022-11-03T09:52:10;5.82;;;2.28;;
75465;SDS011;64049;46.290;44.240;2022-11-03T09:54:40;7.97;;;2.75;;
75465;SDS011;64049;46.290;44.240;2022-11-03T09:57:09;6.63;;;2.95;;
75465;SDS011;64049;46.290;44.240;2022-11-03T09:59:37;7.32;;;3.67;;
75465;SDS011;64049;46.290;44.240;2022-11-03T10:02:14;6.55;;;3.28;;
75465;SDS011;64049;46.290;44.240;2022-11-03T10:04:47;10.85;;;2.75;;
75465;SDS011;64049;46.290;44.240;2022-11-03T10:07:13;5.28;;;2.75;;
75465;SDS011;64049;46.290;44.240;2022-11-03T10:09:41;6.07;;;2.78;;
75465;SDS011;64049;46.290;44.240;2022-11-03T10:12:09;6.70;;;2.65;;
75465;SDS011;64049;46.290;44.240;2022-11-03T10:14:36;8.05;;;4.00;;
75465;SDS011;64049;46.290;44.240;2022-11-03T10:17:02;7.32;;;3.63;;
75465;SDS011;64049;46.290;44.240;2022-11-03T10:19:28;9.10;;;4.05;;
75465;SDS011;64049;46.290;44.240;2022-11-03T10:21:54;7.85;;;3.95;;
75465;SDS011;64049;46.290;44.240;2022-11-03T10:24:20;9.32;;;4.53;;
75465;SDS011;64049;46.290;44.240;2022-11-03T10:26:50;8.20;;;3.63;;
75465;SDS011;64049;46.290;44.240;2022-11-03T10:31:45;8.82;;;4.65;;
75465;SDS011;64049;46.290;44.240;2022-11-03T10:34:37;9.00;;;3.58;;
75465;SDS011;64049;46.290;44.240;2022-11-03T10:37:18;8.18;;;4.30;;
75465;SDS011;64049;46.290;44.240;2022-11-03T10:39:49;10.38;;;5.30;;
75465;SDS011;64049;46.290;44.240;2022-11-03T10:44:46;8.50;;;4.30;;
75465;SDS011;64049;46.290;44.240;2022-11-03T10:47:23;8.55;;;3.78;;
75465;SDS011;64049;46.290;44.240;2022-11-03T10:49:50;7.65;;;3.35;;
75465;SDS011;64049;46.290;44.240;2022-11-03T10:52:20;9.45;;;4.05;;
75465;SDS011;64049;46.290;44.240;2022-11-03T10:54:48;9.13;;;4.75;;
75465;SDS011;64049;46.290;44.240;2022-11-03T10:57:16;8.38;;;5.07;;
75465;SDS011;64049;46.290;44.240;2022-11-03T10:59:43;8.40;;;4.55;;
75465;SDS011;64049;46.290;44.240;2022-11-03T11:02:13;8.55;;;3.40;;
75465;SDS011;64049;46.290;44.240;2022-11-03T11:04:51;9.75;;;5.60;;
75465;SDS011;64049;46.290;44.240;2022-11-03T11:07:31;11.50;;;4.90;;
75465;SDS011;64049;46.290;44.240;2022-11-03T11:10:07;9.63;;;4.07;;
75465;SDS011;64049;46.290;44.240;2022-11-03T11:20:53;12.07;;;4.65;;
75465;SDS011;64049;46.290;44.240;2022-11-03T11:28:41;6.10;;;3.55;;
75465;SDS011;64049;46.290;44.240;2022-11-03T11:58:01;6.53;;;3.08;;
75465;SDS011;64049;46.290;44.240;2022-11-03T12:00:29;10.40;;;3.80;;
75465;SDS011;64049;46.290;44.240;2022-11-03T12:02:58;8.15;;;4.63;;
75465;SDS011;64049;46.290;44.240;2022-11-03T12:05:27;10.60;;;4.53;;
75465;SDS011;64049;46.290;44.240;2022-11-03T12:07:56;5.82;;;3.05;;
75465;SDS011;64049;46.290;44.240;2022-11-03T12:10:26;8.13;;;2.33;;
75465;SDS011;64049;46.290;44.240;2022-11-03T12:12:54;6.45;;;3.40;;
75465;SDS011;64049;46.290;44.240;2022-11-03T12:18:31;8.00;;;2.95;;
75465;SDS011;64049;46.290;44.240;2022-11-03T12:20:59;6.97;;;3.03;;
75465;SDS011;64049;46.290;44.240;2022-11-03T12:23:33;8.07;;;3.88;;
75465;SDS011;64049;46.290;44.240;2022-11-03T12:26:12;7.53;;;3.70;;
75465;SDS011;64049;46.290;44.240;2022-11-03T12:28:40;6.38;;;2.83;;
75465;SDS011;64049;46.290;44.240;2022-11-03T12:31:06;7.35;;;2.70;;
75465;SDS011;64049;46.290;44.240;2022-11-03T12:33:32;6.00;;;2.80;;
75465;SDS011;64049;46.290;44.240;2022-11-03T12:35:58;5.78;;;2.97;;
75465;SDS011;64049;46.290;44.240;2022-11-03T12:38:24;5.90;;;2.58;;
75465;SDS011;64049;46.290;44.240;2022-11-03T12:40:50;4.55;;;2.38;;
75465;SDS011;64049;46.290;44.240;2022-11-03T12:43:18;7.13;;;2.60;;
75465;SDS011;64049;46.290;44.240;2022-11-03T12:45:44;4.93;;;1.67;;
75465;SDS011;64049;46.290;44.240;2022-11-03T12:48:10;5.68;;;2.40;;
75465;SDS011;64049;46.290;44.240;2022-11-03T12:50:36;8.30;;;2.30;;
75465;SDS011;64049;46.290;44.240;2022-11-03T12:53:03;4.13;;;0.93;;
75465;SDS011;64049;46.290;44.240;2022-11-03T12:55:31;6.60;;;2.20;;
75465;SDS011;64049;46.290;44.240;2022-11-03T12:57:58;8.40;;;3.13;;
75465;SDS011;64049;46.290;44.240;2022-11-03T13:00:24;4.18;;;1.85;;
75465;SDS011;64049;46.290;44.240;2022-11-03T13:02:51;5.15;;;2.35;;
75465;SDS011;64049;46.290;44.240;2022-11-03T13:05:17;4.05;;;1.35;;
75465;SDS011;64049;46.290;44.240;2022-11-03T13:07:43;4.88;;;1.80;;
75465;SDS011;64049;46.290;44.240;2022-11-03T13:10:09;5.32;;;2.38;;
75465;SDS011;64049;46.290;44.240;2022-11-03T13:12:35;5.55;;;2.28;;
75465;SDS011;64049;46.290;44.240;2022-11-03T13:15:06;4.53;;;2.20;;
75465;SDS011;64049;46.290;44.240;2022-11-03T13:17:32;7.53;;;2.55;;
75465;SDS011;64049;46.290;44.240;2022-11-03T13:19:58;4.30;;;2.13;;
75465;SDS011;64049;46.290;44.240;2022-11-03T13:22:24;4.78;;;1.75;;
75465;SDS011;64049;46.290;44.240;2022-11-03T13:24:50;8.73;;;3.05;;
75465;SDS011;64049;46.290;44.240;2022-11-03T13:27:16;6.60;;;2.15;;
75465;SDS011;64049;46.290;44.240;2022-11-03T13:29:42;6.90;;;3.53;;
75465;SDS011;64049;46.290;44.240;2022-11-03T13:32:09;6.80;;;2.03;;
75465;SDS011;64049;46.290;44.240;2022-11-03T13:34:35;6.57;;;2.72;;
75465;SDS011;64049;46.290;44.240;2022-11-03T13:37:01;5.72;;;2.83;;
75465;SDS011;64049;46.290;44.240;2022-11-03T13:39:27;5.78;;;2.55;;
75465;SDS011;64049;46.290;44.240;2022-11-03T13:41:52;5.93;;;1.45;;
75465;SDS011;64049;46.290;44.240;2022-11-03T13:44:18;6.47;;;2.30;;
75465;SDS011;64049;46.290;44.240;2022-11-03T13:46:45;5.63;;;1.98;;
75465;SDS011;64049;46.290;44.240;2022-11-03T13:49:11;4.82;;;2.20;;
75465;SDS011;64049;46.290;44.240;2022-11-03T13:51:37;5.20;;;1.67;;
75465;SDS011;64049;46.290;44.240;2022-11-03T13:54:03;2.85;;;0.98;;
75465;SDS011;64049;46.290;44.240;2022-11-03T13:56:29;3.88;;;1.35;;
75465;SDS011;64049;46.290;44.240;2022-11-03T13:58:55;5.78;;;1.60;;
75465;SDS011;64049;46.290;44.240;2022-11-03T14:01:21;3.58;;;1.75;;
75465;SDS011;64049;46.290;44.240;2022-11-03T14:03:47;5.75;;;1.67;;
75465;SDS011;64049;46.290;44.240;2022-11-03T14:06:13;3.30;;;1.30;;
75465;SDS011;64049;46.290;44.240;2022-11-03T14:08:39;4.00;;;1.15;;
75465;SDS011;64049;46.290;44.240;2022-11-03T14:11:04;3.67;;;1.80;;
75465;SDS011;64049;46.290;44.240;2022-11-03T14:13:49;3.95;;;1.48;;
75465;SDS011;64049;46.290;44.240;2022-11-03T14:16:15;5.72;;;2.20;;
75465;SDS011;64049;46.290;44.240;2022-11-03T14:18:41;4.97;;;1.58;;
75465;SDS011;64049;46.290;44.240;2022-11-03T14:21:07;3.67;;;1.42;;
75465;SDS011;64049;46.290;44.240;2022-11-03T14:23:32;3.47;;;1.27;;
75465;SDS011;64049;46.290;44.240;2022-11-03T14:25:58;4.63;;;1.40;;
75465;SDS011;64049;46.290;44.240;2022-11-03T14:28:24;4.85;;;1.65;;
75465;SDS011;64049;46.290;44.240;2022-11-03T14:30:50;3.83;;;1.42;;
75465;SDS011;64049;46.290;44.240;2022-11-03T14:33:16;3.17;;;1.40;;
75465;SDS011;64049;46.290;44.240;2022-11-03T14:35:42;5.10;;;2.15;;
75465;SDS011;64049;46.290;44.240;2022-11-03T14:38:08;5.53;;;1.73;;
75465;SDS011;64049;46.290;44.240;2022-11-03T14:40:34;3.40;;;1.27;;
75465;SDS011;64049;46.290;44.240;2022-11-03T14:43:18;2.97;;;1.20;;
75465;SDS011;64049;46.290;44.240;2022-11-03T14:45:44;3.17;;;1.50;;
75465;SDS011;64049;46.290;44.240;2022-11-03T14:48:10;4.13;;;1.95;;
75465;SDS011;64049;46.290;44.240;2022-11-03T14:50:36;5.80;;;1.80;;
75465;SDS011;64049;46.290;44.240;2022-11-03T14:53:02;5.47;;;1.77;;
75465;SDS011;64049;46.290;44.240;2022-11-03T14:55:28;3.60;;;1.35;;
75465;SDS011;64049;46.290;44.240;2022-11-03T14:57:54;4.93;;;2.08;;
75465;SDS011;64049;46.290;44.240;2022-11-03T15:00:20;4.03;;;1.50;;
75465;SDS011;64049;46.290;44.240;2022-11-03T15:02:46;3.40;;;1.55;;
75465;SDS011;64049;46.290;44.240;2022-11-03T15:05:12;3.88;;;1.88;;
75465;SDS011;64049;46.290;44.240;2022-11-03T15:07:58;5.28;;;1.90;;
75465;SDS011;64049;46.290;44.240;2022-11-03T15:10:24;4.55;;;2.05;;
75465;SDS011;64049;46.290;44.240;2022-11-03T15:12:50;5.05;;;1.95;;
75465;SDS011;64049;46.290;44.240;2022-11-03T15:15:16;3.25;;;1.33;;
75465;SDS011;64049;46.290;44.240;2022-11-03T15:17:42;4.32;;;1.75;;
75465;SDS011;64049;46.290;44.240;2022-11-03T15:20:08;6.35;;;2.00;;
75465;SDS011;64049;46.290;44.240;2022-11-03T15:22:34;4.38;;;1.92;;
75465;SDS011;64049;46.290;44.240;2022-11-03T15:25:00;7.95;;;2.08;;
75465;SDS011;64049;46.290;44.240;2022-11-03T15:27:26;5.05;;;1.75;;
75465;SDS011;64049;46.290;44.240;2022-11-03T15:29:52;4.85;;;2.17;;
75465;SDS011;64049;46.290;44.240;2022-11-03T15:32:18;4.38;;;2.03;;
75465;SDS011;64049;46.290;44.240;2022-11-03T15:34:44;5.05;;;2.10;;
75465;SDS011;64049;46.290;44.240;2022-11-03T15:37:10;5.35;;;2.85;;
75465;SDS011;64049;46.290;44.240;2022-11-03T15:39:36;6.82;;;2.75;;
75465;SDS011;64049;46.290;44.240;2022-11-03T15:42:02;6.05;;;2.45;;
75465;SDS011;64049;46.290;44.240;2022-11-03T15:44:28;4.40;;;1.73;;
75465;SDS011;64049;46.290;44.240;2022-11-03T15:46:54;7.30;;;2.45;;
75465;SDS011;64049;46.290;44.240;2022-11-03T15:49:20;3.78;;;1.58;;
75465;SDS011;64049;46.290;44.240;2022-11-03T15:51:46;7.30;;;2.35;;
75465;SDS011;64049;46.290;44.240;2022-11-03T15:54:12;5.10;;;1.75;;
75465;SDS011;64049;46.290;44.240;2022-11-03T15:56:38;9.68;;;3.40;;
75465;SDS011;64049;46.290;44.240;2022-11-03T15:59:04;6.82;;;2.83;;
75465;SDS011;64049;46.290;44.240;2022-11-03T16:01:30;7.97;;;2.33;;
75465;SDS011;64049;46.290;44.240;2022-11-03T16:03:56;7.20;;;2.40;;
75465;SDS011;64049;46.290;44.240;2022-11-03T16:06:22;10.98;;;2.67;;
75465;SDS011;64049;46.290;44.240;2022-11-03T16:08:48;8.07;;;2.28;;
75465;SDS011;64049;46.290;44.240;2022-11-03T16:11:13;7.32;;;3.13;;